Time;durP1;ratioP1;P1;durP2;ratioP2;P2;SDS_P1;SDS_P2;PMS_P1;PMS_P2;Temp;Humidity;BMP_temperature;BMP_pressure;BME280_temperature;BME280_humidity;BME280_pressure;Samples;Min_cycle;Max_cycle;Signal;HPM_P1;HPM_P2
2022/08/08 00:00:07;;;;;;;1.83;1.73;;;17.40;95.10;;;;;;5062530;28;20444;-75
2022/08/08 00:02:41;;;;;;;1.80;1.70;;;17.30;95.10;;;;;;5049505;28;20511;-76
2022/08/08 00:05:17;;;;;;;1.87;1.70;;;17.30;95.30;;;;;;5058366;28;20506;-76
2022/08/08 00:07:51;;;;;;;2.77;1.80;;;17.30;95.40;;;;;;5064581;28;20463;-76
2022/08/08 00:10:21;;;;;;;2.37;2.20;;;17.30;95.60;;;;;;5054089;28;20841;-76
2022/08/08 00:12:54;;;;;;;3.93;2.00;;;17.30;95.60;;;;;;5051805;28;20426;-76
2022/08/08 00:15:27;;;;;;;4.03;1.70;;;17.20;95.60;;;;;;5053306;28;21122;-76
2022/08/08 00:17:57;;;;;;;3.53;1.50;;;17.20;95.80;;;;;;5070577;28;20514;-75
2022/08/08 00:20:33;;;;;;;1.80;1.70;;;17.20;95.80;;;;;;5066546;28;20455;-76
2022/08/08 00:23:03;;;;;;;4.63;1.90;;;17.20;95.90;;;;;;5059293;28;20455;-75
2022/08/08 00:25:35;;;;;;;2.27;1.60;;;17.10;96.10;;;;;;5047636;28;20830;-76
2022/08/08 00:28:06;;;;;;;3.00;2.07;;;17.10;96.30;;;;;;5048346;28;20859;-76
2022/08/08 00:30:37;;;;;;;1.90;1.70;;;17.10;96.40;;;;;;5049093;28;20435;-76
2022/08/08 00:33:08;;;;;;;2.37;1.97;;;17.00;96.60;;;;;;5070272;28;20447;-76
2022/08/08 00:35:46;;;;;;;1.93;1.70;;;17.00;96.70;;;;;;5056374;28;20505;-76
2022/08/08 00:38:34;;;;;;;1.97;1.83;;;17.00;96.80;;;;;;5051250;28;20498;-76
2022/08/08 00:41:43;;;;;;;1.90;1.77;;;17.00;96.90;;;;;;5056245;28;20591;-76
2022/08/08 00:44:36;;;;;;;2.33;1.77;;;17.00;97.10;;;;;;5052746;28;20484;-76
2022/08/08 00:47:41;;;;;;;2.87;1.80;;;17.00;97.20;;;;;;5051948;28;20547;-75
2022/08/08 00:50:42;;;;;;;1.70;1.60;;;17.00;97.30;;;;;;5048175;28;21004;-76
2022/08/08 00:53:25;;;;;;;2.03;1.93;;;16.90;97.50;;;;;;5051010;28;20793;-76
2022/08/08 00:56:28;;;;;;;1.90;1.70;;;16.90;97.70;;;;;;5059510;28;20457;-76
2022/08/08 00:59:32;;;;;;;1.70;1.60;;;16.80;97.70;;;;;;5061718;28;20453;-76
2022/08/08 01:02:15;;;;;;;2.03;1.83;;;16.80;97.80;;;;;;5056022;28;20437;-76
2022/08/08 01:05:03;;;;;;;1.80;1.63;;;16.80;98.00;;;;;;5050507;28;20897;-76
2022/08/08 01:07:49;;;;;;;4.20;1.80;;;16.80;98.20;;;;;;5051000;28;20477;-76
2022/08/08 01:10:51;;;;;;;1.77;1.60;;;16.70;98.40;;;;;;5050074;28;20519;-76
2022/08/08 01:13:53;;;;;;;1.80;1.70;;;16.70;98.60;;;;;;5052405;28;21017;-76
2022/08/08 01:17:02;;;;;;;2.30;1.77;;;16.60;98.80;;;;;;5062715;28;20459;-75
2022/08/08 01:20:03;;;;;;;3.50;2.10;;;16.50;99.00;;;;;;5025593;28;20437;-76
2022/08/08 01:23:03;;;;;;;1.70;1.60;;;16.50;99.20;;;;;;5050895;28;20529;-76
2022/08/08 01:26:15;;;;;;;3.20;1.87;;;16.40;99.40;;;;;;5028543;28;20513;-76
2022/08/08 01:29:12;;;;;;;1.97;1.87;;;16.40;99.60;;;;;;5059933;28;20497;-76
2022/08/08 01:32:19;;;;;;;2.10;1.93;;;16.40;99.70;;;;;;5067078;28;20983;-76
2022/08/08 01:35:19;;;;;;;2.70;1.70;;;16.40;99.80;;;;;;5055709;28;20464;-76
2022/08/08 01:38:14;;;;;;;3.67;2.10;;;16.40;99.90;;;;;;5051544;28;20514;-76
2022/08/08 01:40:50;;;;;;;2.07;1.97;;;16.30;99.90;;;;;;5049565;28;20446;-76
2022/08/08 01:43:30;;;;;;;2.80;1.70;;;16.30;99.90;;;;;;5055368;28;20448;-75
2022/08/08 01:46:02;;;;;;;3.90;1.90;;;16.30;99.90;;;;;;5059200;28;20440;-76
2022/08/08 01:48:46;;;;;;;2.07;1.97;;;16.20;99.90;;;;;;5049266;28;20593;-76
2022/08/08 01:51:50;;;;;;;5.43;1.90;;;16.20;99.90;;;;;;5054458;28;20529;-76
2022/08/08 01:54:27;;;;;;;3.40;1.83;;;16.10;99.90;;;;;;5055994;28;20500;-76
2022/08/08 01:57:09;;;;;;;3.67;2.10;;;16.10;99.90;;;;;;5053701;28;20452;-76
2022/08/08 01:59:52;;;;;;;3.70;1.90;;;16.10;99.90;;;;;;5058056;28;20444;-76
2022/08/08 02:02:36;;;;;;;4.03;2.03;;;16.10;99.90;;;;;;5061620;28;20472;-76
2022/08/08 02:05:17;;;;;;;5.43;2.00;;;16.00;99.90;;;;;;5060903;28;20506;-75
2022/08/08 02:07:57;;;;;;;2.70;2.13;;;16.00;99.90;;;;;;5051843;28;20506;-76
2022/08/08 02:10:37;;;;;;;2.80;2.00;;;15.90;99.90;;;;;;5056247;28;20455;-76
2022/08/08 02:13:12;;;;;;;2.60;2.13;;;15.90;99.90;;;;;;5056455;28;20551;-76
2022/08/08 02:15:46;;;;;;;2.23;2.03;;;15.90;99.90;;;;;;5065986;28;20448;-76
2022/08/08 02:18:18;;;;;;;2.00;1.80;;;15.80;99.90;;;;;;5069107;28;20505;-76
2022/08/08 02:23:41;;;;;;;2.17;1.80;;;15.80;99.90;;;;;;5056387;28;20441;-76
2022/08/08 02:26:14;;;;;;;2.20;1.97;;;15.80;99.90;;;;;;5052831;28;20486;-76
2022/08/08 02:29:04;;;;;;;5.10;2.10;;;15.70;99.90;;;;;;5053375;28;21229;-76
2022/08/08 02:31:56;;;;;;;2.40;2.30;;;15.70;99.90;;;;;;5071174;28;20517;-75
2022/08/08 02:34:38;;;;;;;2.27;2.00;;;15.70;99.90;;;;;;5052931;28;20882;-75
2022/08/08 02:37:16;;;;;;;2.50;1.77;;;15.70;99.90;;;;;;5062876;28;20946;-75
2022/08/08 02:40:04;;;;;;;4.37;2.43;;;15.60;99.90;;;;;;5059298;28;21021;-76
2022/08/08 02:43:10;;;;;;;1.97;1.77;;;15.60;99.90;;;;;;5049596;28;20552;-76
2022/08/08 02:46:05;;;;;;;2.37;2.27;;;15.60;99.90;;;;;;5054487;28;20483;-75
2022/08/08 02:49:01;;;;;;;2.10;2.00;;;15.60;99.90;;;;;;5060157;28;20466;-76
2022/08/08 02:52:10;;;;;;;2.00;1.90;;;15.50;99.90;;;;;;5070900;28;20475;-75
2022/08/08 02:58:18;;;;;;;1.90;1.80;;;15.50;99.90;;;;;;5088295;28;21134;-75
2022/08/08 03:01:23;;;;;;;2.87;2.27;;;15.40;99.90;;;;;;5086003;28;20462;-74
2022/08/08 03:04:37;;;;;;;2.20;2.00;;;15.40;99.90;;;;;;5069721;28;20496;-75
2022/08/08 03:07:55;;;;;;;6.07;2.10;;;15.40;99.90;;;;;;5083988;28;21071;-75
2022/08/08 03:10:40;;;;;;;3.87;2.00;;;15.40;99.90;;;;;;5073381;28;20491;-75
2022/08/08 03:13:44;;;;;;;8.40;2.00;;;15.40;99.90;;;;;;5087401;28;20450;-75
2022/08/08 03:16:25;;;;;;;2.33;2.13;;;15.40;99.90;;;;;;5076092;28;20479;-74
2022/08/08 03:19:03;;;;;;;2.43;2.23;;;15.40;99.90;;;;;;5067304;28;20509;-74
2022/08/08 03:21:30;;;;;;;2.17;2.07;;;15.40;99.90;;;;;;5075707;28;20527;-75
2022/08/08 03:23:58;;;;;;;2.63;2.30;;;15.30;99.90;;;;;;5072430;28;20504;-75
2022/08/08 03:26:30;;;;;;;2.40;2.17;;;15.30;99.90;;;;;;5071343;28;20452;-75
2022/08/08 03:29:02;;;;;;;2.40;2.00;;;15.30;99.90;;;;;;5074199;28;20443;-75
2022/08/08 03:34:14;;;;;;;2.47;2.27;;;15.30;99.90;;;;;;5076313;28;20441;-75
2022/08/08 03:36:41;;;;;;;2.90;2.60;;;15.30;99.90;;;;;;5076515;28;20480;-75
2022/08/08 03:39:10;;;;;;;2.20;2.10;;;15.30;99.90;;;;;;5080229;28;20455;-75
2022/08/08 03:41:37;;;;;;;2.30;2.10;;;15.30;99.90;;;;;;5084807;28;20466;-74
2022/08/08 03:44:05;;;;;;;4.63;2.30;;;15.30;99.90;;;;;;5070988;28;20451;-75
2022/08/08 03:46:32;;;;;;;2.33;2.10;;;15.20;99.90;;;;;;5071388;28;20440;-75
2022/08/08 03:49:01;;;;;;;2.63;2.43;;;15.20;99.90;;;;;;5076059;28;20535;-75
2022/08/08 03:51:28;;;;;;;2.60;2.23;;;15.20;99.90;;;;;;5083170;28;20471;-75
2022/08/08 03:53:55;;;;;;;3.60;2.50;;;15.10;99.90;;;;;;5080318;28;20447;-75
2022/08/08 03:56:23;;;;;;;2.50;2.30;;;15.10;99.90;;;;;;5081024;28;20536;-75
2022/08/08 03:58:51;;;;;;;2.50;2.30;;;15.10;99.90;;;;;;5077499;28;20512;-75
2022/08/08 04:01:18;;;;;;;2.50;2.30;;;15.00;99.90;;;;;;5083991;28;20561;-75
2022/08/08 04:03:47;;;;;;;2.03;1.93;;;15.00;99.90;;;;;;5075352;28;20451;-75
2022/08/08 04:06:14;;;;;;;2.33;2.23;;;15.00;99.90;;;;;;5067313;28;20448;-74
2022/08/08 04:08:42;;;;;;;2.40;2.20;;;15.00;99.90;;;;;;5056061;28;20497;-75
2022/08/08 04:11:09;;;;;;;2.80;2.60;;;15.00;99.90;;;;;;5064734;28;20542;-75
2022/08/08 04:13:37;;;;;;;3.60;2.30;;;15.00;99.90;;;;;;5060746;28;20448;-74
2022/08/08 04:16:04;;;;;;;2.90;2.07;;;14.90;99.90;;;;;;5055263;28;20902;-75
2022/08/08 04:18:31;;;;;;;2.20;2.00;;;14.90;99.90;;;;;;5061864;28;20444;-74
2022/08/08 04:20:58;;;;;;;2.73;2.53;;;14.90;99.90;;;;;;5069025;28;20472;-74
2022/08/08 04:23:25;;;;;;;2.20;2.10;;;14.90;99.90;;;;;;5064581;28;20448;-75
2022/08/08 04:25:51;;;;;;;2.57;2.37;;;14.90;99.90;;;;;;5052724;28;20456;-74
2022/08/08 04:28:18;;;;;;;2.43;2.13;;;14.90;99.90;;;;;;5052990;28;20457;-73
2022/08/08 04:30:47;;;;;;;2.30;2.10;;;14.90;99.90;;;;;;5054219;28;20468;-75
2022/08/08 04:33:13;;;;;;;2.60;2.40;;;15.00;99.90;;;;;;5058925;28;20452;-75
2022/08/08 04:35:40;;;;;;;2.97;2.67;;;15.10;99.90;;;;;;5058581;28;20509;-75
2022/08/08 04:38:07;;;;;;;2.30;2.20;;;15.10;99.90;;;;;;5065066;28;20455;-74
2022/08/08 04:40:33;;;;;;;2.40;2.20;;;15.10;99.90;;;;;;5064752;28;20468;-75
2022/08/08 04:43:00;;;;;;;2.50;2.30;;;15.20;99.90;;;;;;5052669;28;20452;-75
2022/08/08 04:45:27;;;;;;;3.57;2.50;;;15.30;99.90;;;;;;5052950;28;20571;-75
2022/08/08 04:47:57;;;;;;;2.40;2.20;;;15.30;99.90;;;;;;5052133;28;20526;-74
2022/08/08 04:50:24;;;;;;;3.80;2.33;;;15.40;99.90;;;;;;5056162;28;20456;-75
2022/08/08 04:52:50;;;;;;;3.13;2.40;;;15.40;99.90;;;;;;5065686;28;21009;-74
2022/08/08 04:55:17;;;;;;;2.40;2.30;;;15.50;99.90;;;;;;5053510;28;20456;-75
2022/08/08 04:57:44;;;;;;;3.90;2.23;;;15.40;99.90;;;;;;5056060;28;20480;-74
2022/08/08 05:00:12;;;;;;;5.37;2.30;;;15.50;99.90;;;;;;5067714;28;20454;-75
2022/08/08 05:02:39;;;;;;;2.50;2.30;;;15.50;99.90;;;;;;5067595;28;20456;-75
2022/08/08 05:05:07;;;;;;;2.50;2.23;;;15.60;99.90;;;;;;5055480;28;20867;-74
2022/08/08 05:07:34;;;;;;;5.03;2.50;;;15.60;99.90;;;;;;5062996;28;20449;-76
2022/08/08 05:10:01;;;;;;;2.80;2.60;;;15.70;99.90;;;;;;5055537;28;20526;-75
2022/08/08 05:12:28;;;;;;;3.73;2.47;;;15.70;99.90;;;;;;5065947;28;20517;-75
2022/08/08 05:14:54;;;;;;;2.50;2.30;;;15.80;99.90;;;;;;5071662;28;20887;-75
2022/08/08 05:17:21;;;;;;;2.63;2.43;;;15.80;99.90;;;;;;5062503;28;20511;-75
2022/08/08 05:19:48;;;;;;;2.30;2.20;;;16.00;99.90;;;;;;5059207;28;20448;-75
2022/08/08 05:22:16;;;;;;;3.63;2.10;;;16.30;99.90;;;;;;5057413;28;20983;-75
2022/08/08 05:24:43;;;;;;;2.43;2.23;;;16.60;99.90;;;;;;5066923;28;20470;-75
2022/08/08 05:27:09;;;;;;;2.43;2.17;;;16.70;99.90;;;;;;5052336;28;20448;-75
2022/08/08 05:29:36;;;;;;;2.50;2.30;;;16.80;99.90;;;;;;5066495;28;20452;-75
2022/08/08 05:32:04;;;;;;;4.77;2.60;;;16.90;99.90;;;;;;5060667;28;20468;-73
2022/08/08 05:34:34;;;;;;;3.67;2.33;;;17.00;99.90;;;;;;5062852;28;20456;-73
2022/08/08 05:37:04;;;;;;;6.23;2.23;;;17.00;99.90;;;;;;5058173;28;20502;-73
2022/08/08 05:39:32;;;;;;;2.50;2.20;;;17.10;99.90;;;;;;5066617;28;20475;-73
2022/08/08 05:42:00;;;;;;;2.50;2.30;;;17.20;99.90;;;;;;5065683;28;20899;-73
2022/08/08 05:44:29;;;;;;;5.10;2.43;;;17.20;99.90;;;;;;5065432;28;20501;-73
2022/08/08 05:46:58;;;;;;;6.80;2.70;;;17.30;99.90;;;;;;5065941;28;20459;-76
2022/08/08 05:49:25;;;;;;;4.30;2.10;;;17.30;99.90;;;;;;5066688;28;20453;-73
2022/08/08 05:51:52;;;;;;;7.80;2.70;;;17.40;99.90;;;;;;5065904;28;20525;-73
2022/08/08 05:54:19;;;;;;;5.10;2.97;;;17.60;99.90;;;;;;5065798;28;20460;-73
2022/08/08 05:56:50;;;;;;;3.63;2.20;;;17.70;99.90;;;;;;5064901;28;20513;-73
2022/08/08 05:59:19;;;;;;;2.23;2.10;;;17.70;99.90;;;;;;5066356;28;20456;-73
2022/08/08 06:01:53;;;;;;;5.70;2.47;;;18.00;99.90;;;;;;5064953;28;20446;-73
2022/08/08 06:04:23;;;;;;;3.43;2.10;;;18.20;99.90;;;;;;5066096;28;20487;-73
2022/08/08 06:06:52;;;;;;;8.80;2.10;;;18.40;99.90;;;;;;5066954;28;20414;-74
2022/08/08 06:09:23;;;;;;;2.80;2.50;;;18.70;99.90;;;;;;5065346;28;20459;-75
2022/08/08 06:11:51;;;;;;;2.60;2.40;;;18.80;99.90;;;;;;5065620;28;21587;-75
2022/08/08 06:14:18;;;;;;;4.50;2.43;;;19.00;99.90;;;;;;5065413;28;20431;-74
2022/08/08 06:16:46;;;;;;;2.10;2.00;;;19.30;99.90;;;;;;5064535;28;20503;-74
2022/08/08 06:19:15;;;;;;;3.60;2.07;;;19.40;99.90;;;;;;5065710;28;20504;-74
2022/08/08 06:21:47;;;;;;;3.37;2.30;;;19.60;99.90;;;;;;5065843;28;20953;-74
2022/08/08 06:24:14;;;;;;;2.43;2.33;;;19.80;99.90;;;;;;5066117;28;21747;-76
2022/08/08 06:26:50;;;;;;;2.17;1.77;;;20.00;99.90;;;;;;5066070;28;20426;-76
2022/08/08 06:29:26;;;;;;;4.30;2.27;;;20.30;99.90;;;;;;5066546;28;20422;-76
2022/08/08 06:31:59;;;;;;;2.23;2.03;;;20.40;99.90;;;;;;5065293;28;20438;-77
2022/08/08 06:34:33;;;;;;;4.00;2.57;;;20.60;99.90;;;;;;5064531;28;20463;-76
2022/08/08 06:37:02;;;;;;;2.23;2.00;;;20.70;99.90;;;;;;5065878;28;20482;-76
2022/08/08 06:39:30;;;;;;;2.47;2.23;;;20.80;99.90;;;;;;5064727;28;20425;-76
2022/08/08 06:41:58;;;;;;;3.07;2.07;;;20.90;99.90;;;;;;5064405;28;20491;-76
2022/08/08 06:44:27;;;;;;;2.40;2.20;;;21.00;99.90;;;;;;5061447;28;20488;-77
2022/08/08 06:46:55;;;;;;;3.40;1.80;;;21.00;99.90;;;;;;5063487;28;20423;-76
2022/08/08 06:49:22;;;;;;;2.37;2.27;;;21.00;99.90;;;;;;5059149;28;20479;-77
2022/08/08 06:51:49;;;;;;;5.40;2.10;;;21.10;99.90;;;;;;5054865;28;20480;-76
2022/08/08 06:54:15;;;;;;;3.20;2.20;;;21.20;99.90;;;;;;5056274;28;20456;-76
2022/08/08 06:56:43;;;;;;;4.83;2.10;;;21.40;99.90;;;;;;5055187;28;21071;-76
2022/08/08 06:59:10;;;;;;;4.10;1.80;;;21.40;99.90;;;;;;5055664;28;20430;-76
2022/08/08 07:01:44;;;;;;;2.20;2.00;;;21.50;99.90;;;;;;5055848;28;20613;-77
2022/08/08 07:04:18;;;;;;;2.60;2.07;;;21.50;99.90;;;;;;5054042;28;20456;-76
2022/08/08 07:06:50;;;;;;;6.83;2.33;;;21.60;99.90;;;;;;5056050;28;20449;-77
2022/08/08 07:09:20;;;;;;;3.70;2.30;;;21.70;99.90;;;;;;5056527;28;21705;-77
2022/08/08 07:11:49;;;;;;;2.40;1.60;;;21.90;99.90;;;;;;5056896;28;20475;-77
2022/08/08 07:14:18;;;;;;;2.33;2.10;;;22.10;99.90;;;;;;5056989;28;20461;-77
2022/08/08 07:16:57;;;;;;;2.40;2.20;;;22.20;99.90;;;;;;5056589;28;20476;-78
2022/08/08 07:19:31;;;;;;;4.13;1.80;;;22.30;99.90;;;;;;5056633;28;20431;-77
2022/08/08 07:22:04;;;;;;;2.20;1.90;;;22.60;99.90;;;;;;5056440;28;20471;-77
2022/08/08 07:24:34;;;;;;;3.70;1.90;;;22.80;99.90;;;;;;5055375;28;20464;-78
2022/08/08 07:27:05;;;;;;;4.43;1.73;;;23.00;99.90;;;;;;5057048;28;20514;-77
2022/08/08 07:29:33;;;;;;;6.33;1.70;;;23.00;99.90;;;;;;5056089;28;20444;-77
2022/08/08 07:32:02;;;;;;;2.63;1.70;;;23.20;99.90;;;;;;5055552;28;20475;-77
2022/08/08 07:34:29;;;;;;;2.83;2.27;;;23.30;99.60;;;;;;5056330;28;20960;-77
2022/08/08 07:36:58;;;;;;;8.83;1.80;;;23.30;99.60;;;;;;5055255;28;20518;-77
2022/08/08 07:39:26;;;;;;;5.07;1.93;;;23.40;99.30;;;;;;5055877;28;20449;-77
2022/08/08 07:41:54;;;;;;;3.00;1.70;;;23.60;99.20;;;;;;5055824;28;20480;-77
2022/08/08 07:44:21;;;;;;;5.97;2.03;;;23.70;98.40;;;;;;5060336;28;20456;-78
2022/08/08 07:46:48;;;;;;;4.03;1.97;;;23.90;98.20;;;;;;5058523;28;20972;-78
2022/08/08 07:49:16;;;;;;;6.23;1.97;;;23.90;98.10;;;;;;5058828;28;20447;-77
2022/08/08 07:51:43;;;;;;;11.70;1.97;;;24.00;97.90;;;;;;5058258;28;20472;-77
2022/08/08 07:54:20;;;;;;;2.03;1.67;;;24.10;96.80;;;;;;5060808;28;20499;-78
2022/08/08 07:56:58;;;;;;;1.80;1.70;;;24.30;97.20;;;;;;5056494;28;21073;-78
2022/08/08 07:59:31;;;;;;;4.70;1.80;;;24.40;97.10;;;;;;5057346;28;20456;-79
2022/08/08 08:01:59;;;;;;;3.33;1.97;;;24.50;96.70;;;;;;5058202;28;20534;-78
2022/08/08 08:04:33;;;;;;;2.43;1.40;;;24.80;96.50;;;;;;5059941;28;20440;-78
2022/08/08 08:07:00;;;;;;;4.17;1.73;;;25.00;96.30;;;;;;5059414;28;20448;-74
2022/08/08 08:09:31;;;;;;;7.73;1.80;;;25.20;96.00;;;;;;5059309;28;20527;-75
2022/08/08 08:12:00;;;;;;;1.90;1.50;;;25.30;95.10;;;;;;5057431;28;20483;-74
2022/08/08 08:14:30;;;;;;;3.13;1.40;;;25.20;95.30;;;;;;5057331;28;20808;-74
2022/08/08 08:16:58;;;;;;;7.30;1.57;;;25.50;94.80;;;;;;5059722;28;20498;-72
2022/08/08 08:19:30;;;;;;;6.73;3.50;;;25.60;94.80;;;;;;5058437;28;20452;-73
2022/08/08 08:21:57;;;;;;;2.37;1.77;;;25.70;94.30;;;;;;5058795;28;20484;-73
2022/08/08 08:24:23;;;;;;;1.60;1.50;;;25.90;94.50;;;;;;5059070;28;20455;-73
2022/08/08 08:26:50;;;;;;;2.57;1.80;;;26.10;94.10;;;;;;5057803;28;20482;-73
2022/08/08 08:29:17;;;;;;;4.20;1.40;;;26.30;93.50;;;;;;5059264;28;20518;-78
2022/08/08 08:31:43;;;;;;;7.20;1.90;;;26.30;93.70;;;;;;5059480;28;20472;-79
2022/08/08 08:34:11;;;;;;;3.17;1.50;;;26.40;93.30;;;;;;5060222;28;20938;-79
2022/08/08 08:36:40;;;;;;;3.00;1.70;;;26.20;92.90;;;;;;5059084;28;20456;-79
2022/08/08 08:39:06;;;;;;;4.60;1.70;;;26.50;92.50;;;;;;5059933;28;20487;-79
2022/08/08 08:41:34;;;;;;;3.40;1.67;;;26.70;93.00;;;;;;5057843;28;20460;-81
2022/08/08 08:44:02;;;;;;;2.47;1.40;;;26.90;93.00;;;;;;5059473;28;20517;-78
2022/08/08 08:46:30;;;;;;;3.00;1.70;;;27.00;92.60;;;;;;5059448;28;20456;-79
2022/08/08 08:48:58;;;;;;;3.90;1.80;;;27.10;92.00;;;;;;5059251;28;20444;-79
2022/08/08 08:51:27;;;;;;;2.40;1.60;;;27.20;92.10;;;;;;5059788;28;20529;-79
2022/08/08 08:53:56;;;;;;;1.70;1.60;;;27.40;91.70;;;;;;5058655;28;20502;-79
2022/08/08 08:56:24;;;;;;;2.80;1.83;;;27.50;91.50;;;;;;5057319;28;20451;-79
2022/08/08 08:58:52;;;;;;;10.73;2.07;;;27.70;90.80;;;;;;5058487;28;20489;-79
2022/08/08 09:01:20;;;;;;;2.33;1.43;;;27.60;90.70;;;;;;5059042;28;20472;-79
2022/08/08 09:03:49;;;;;;;2.20;1.57;;;27.60;91.30;;;;;;5059600;28;20473;-79
2022/08/08 09:06:20;;;;;;;4.87;1.60;;;27.70;90.50;;;;;;5056931;28;20869;-80
2022/08/08 09:08:53;;;;;;;3.93;1.40;;;27.90;90.40;;;;;;5059455;28;20456;-79
2022/08/08 09:11:22;;;;;;;3.33;1.77;;;27.90;90.20;;;;;;5057547;28;20479;-79
2022/08/08 09:13:50;;;;;;;4.53;1.70;;;28.10;90.10;;;;;;5058976;28;21025;-79
2022/08/08 09:16:17;;;;;;;2.60;1.50;;;28.30;90.00;;;;;;5057900;28;20447;-78
2022/08/08 09:18:45;;;;;;;1.50;1.40;;;28.50;88.20;;;;;;5058605;28;21004;-79
2022/08/08 09:21:13;;;;;;;10.17;1.70;;;28.60;87.50;;;;;;5056242;28;20899;-79
2022/08/08 09:23:40;;;;;;;3.00;1.53;;;28.80;88.50;;;;;;5058579;28;20447;-79
2022/08/08 09:26:12;;;;;;;3.00;1.60;;;28.80;88.60;;;;;;5057748;28;20444;-79
2022/08/08 09:28:43;;;;;;;6.77;1.90;;;29.00;86.60;;;;;;5060117;28;20448;-80
2022/08/08 09:31:14;;;;;;;3.97;1.50;;;28.90;85.90;;;;;;5056814;28;20893;-79
2022/08/08 09:33:44;;;;;;;3.70;1.27;;;29.10;85.70;;;;;;5058719;28;20444;-80
2022/08/08 09:36:17;;;;;;;5.47;1.43;;;29.30;85.80;;;;;;5057782;28;20534;-80
2022/08/08 09:38:52;;;;;;;1.33;1.17;;;29.30;81.90;;;;;;5057981;28;20627;-80
2022/08/08 09:41:27;;;;;;;2.93;1.30;;;29.50;80.20;;;;;;5055947;28;20502;-79
2022/08/08 09:44:01;;;;;;;6.30;1.20;;;29.30;80.50;;;;;;5057627;28;21020;-79
2022/08/08 09:46:29;;;;;;;2.33;1.20;;;29.40;82.90;;;;;;5057794;28;20449;-79
2022/08/08 09:48:58;;;;;;;6.93;1.57;;;29.70;82.70;;;;;;5057743;28;20463;-80
2022/08/08 09:51:31;;;;;;;4.93;1.20;;;29.80;79.80;;;;;;5057185;28;20576;-80
2022/08/08 09:54:02;;;;;;;3.97;1.50;;;29.80;78.70;;;;;;5056109;28;20515;-79
2022/08/08 09:56:33;;;;;;;3.47;1.70;;;29.90;78.90;;;;;;5056768;28;21005;-79
2022/08/08 09:59:03;;;;;;;1.80;1.20;;;30.00;76.20;;;;;;5058291;28;20479;-79
2022/08/08 10:01:32;;;;;;;4.20;1.30;;;29.90;74.60;;;;;;5057092;28;21012;-78
2022/08/08 10:04:00;;;;;;;5.18;1.10;;;29.70;73.40;;;;;;5055912;28;20965;-79
2022/08/08 10:06:27;;;;;;;3.92;1.35;;;29.90;76.10;;;;;;5056693;28;20434;-78
2022/08/08 10:08:54;;;;;;;1.30;1.20;;;30.10;76.10;;;;;;5056691;28;20564;-78
2022/08/08 10:11:22;;;;;;;1.65;1.15;;;30.00;74.90;;;;;;5054991;28;20877;-78
2022/08/08 10:13:54;;;;;;;1.73;1.20;;;29.80;75.50;;;;;;5057033;28;20762;-78
2022/08/08 10:16:22;;;;;;;3.13;1.33;;;30.10;75.00;;;;;;5055962;28;20532;-78
2022/08/08 10:18:49;;;;;;;1.30;1.20;;;30.30;72.40;;;;;;5056311;28;20473;-78
2022/08/08 10:21:18;;;;;;;2.58;1.20;;;30.30;71.90;;;;;;5055561;28;20963;-78
2022/08/08 10:23:48;;;;;;;2.33;1.30;;;30.30;72.00;;;;;;5056377;28;20685;-78
2022/08/08 10:26:22;;;;;;;6.27;1.10;;;30.30;69.60;;;;;;5054715;28;20963;-78
2022/08/08 10:28:55;;;;;;;1.70;0.97;;;30.10;69.70;;;;;;5056825;28;20440;-78
2022/08/08 10:34:17;;;;;;;2.90;1.07;;;30.20;68.80;;;;;;5056223;28;20534;-78
2022/08/08 10:36:44;;;;;;;1.87;1.00;;;30.20;69.20;;;;;;5055848;28;20445;-78
2022/08/08 10:39:17;;;;;;;2.37;1.20;;;30.50;69.60;;;;;;5055663;28;20476;-77
2022/08/08 10:41:45;;;;;;;1.23;1.13;;;30.40;68.00;;;;;;5055557;28;20479;-78
2022/08/08 10:44:12;;;;;;;5.17;1.20;;;29.70;67.90;;;;;;5054453;28;21144;-78
2022/08/08 10:46:40;;;;;;;2.00;1.10;;;29.70;70.00;;;;;;5055569;28;20452;-77
2022/08/08 10:49:06;;;;;;;1.93;1.03;;;29.80;66.80;;;;;;5056456;28;20494;-78
2022/08/08 10:51:36;;;;;;;3.00;1.20;;;30.00;68.70;;;;;;5054613;28;20472;-78
2022/08/08 10:54:03;;;;;;;1.40;1.13;;;30.20;69.10;;;;;;5057270;28;20443;-77
2022/08/08 10:56:33;;;;;;;5.73;1.10;;;30.50;70.00;;;;;;5055927;28;20514;-78
2022/08/08 10:59:01;;;;;;;1.23;1.13;;;31.00;69.70;;;;;;5056036;28;20574;-78
2022/08/08 11:01:29;;;;;;;1.10;1.00;;;31.30;67.80;;;;;;5054022;28;20473;-78
2022/08/08 11:03:59;;;;;;;4.13;1.13;;;31.40;67.80;;;;;;5056336;28;20461;-78
2022/08/08 11:06:37;;;;;;;1.10;1.00;;;31.50;65.70;;;;;;5057884;28;20505;-78
2022/08/08 11:09:05;;;;;;;1.20;0.90;;;31.70;67.50;;;;;;5026395;28;20472;-78
2022/08/08 11:11:38;;;;;;;2.40;0.93;;;31.50;64.90;;;;;;5057037;28;21073;-77
2022/08/08 11:14:05;;;;;;;1.30;1.20;;;31.60;66.00;;;;;;5057455;28;20462;-77
2022/08/08 11:16:35;;;;;;;1.83;1.50;;;31.70;63.60;;;;;;5058367;28;20451;-77
2022/08/08 11:19:04;;;;;;;4.13;1.30;;;31.40;65.40;;;;;;5060275;28;20529;-77
2022/08/08 11:21:35;;;;;;;1.67;1.10;;;30.90;65.10;;;;;;5060527;28;20486;-77
2022/08/08 11:24:05;;;;;;;1.10;1.00;;;30.50;64.60;;;;;;5060234;28;21716;-76
2022/08/08 11:26:35;;;;;;;1.10;0.90;;;30.00;64.60;;;;;;5060337;28;20453;-76
2022/08/08 11:29:03;;;;;;;6.63;1.33;;;29.80;66.60;;;;;;5061138;28;20441;-76
2022/08/08 11:31:35;;;;;;;2.90;1.40;;;29.90;67.70;;;;;;5060970;28;20518;-77
2022/08/08 11:34:04;;;;;;;6.23;1.43;;;30.20;67.50;;;;;;5061210;28;20452;-77
2022/08/08 11:36:32;;;;;;;1.97;1.10;;;30.40;66.40;;;;;;5061760;28;20448;-77
2022/08/08 11:39:01;;;;;;;1.20;1.07;;;30.70;66.70;;;;;;5061526;28;20525;-76
2022/08/08 11:41:29;;;;;;;1.10;1.00;;;30.50;65.20;;;;;;5060360;28;20475;-77
2022/08/08 11:43:56;;;;;;;3.10;1.10;;;30.40;67.70;;;;;;5059158;28;20452;-76
2022/08/08 11:46:24;;;;;;;2.13;1.47;;;30.60;66.10;;;;;;5061701;28;20460;-77
2022/08/08 11:48:51;;;;;;;2.07;1.40;;;30.80;65.20;;;;;;5062191;28;20448;-76
2022/08/08 11:51:22;;;;;;;5.10;1.10;;;31.10;65.50;;;;;;5060544;28;20483;-77
2022/08/08 11:53:49;;;;;;;2.13;1.20;;;31.20;64.10;;;;;;5059107;28;20448;-76
2022/08/08 11:56:21;;;;;;;1.50;1.30;;;31.30;65.00;;;;;;5060400;28;20886;-77
2022/08/08 11:58:48;;;;;;;1.20;0.90;;;31.50;64.20;;;;;;5060702;28;21014;-76
2022/08/08 12:01:15;;;;;;;1.90;1.07;;;31.60;63.00;;;;;;5060053;28;20471;-77
2022/08/08 12:03:45;;;;;;;1.17;1.00;;;31.70;64.30;;;;;;5060802;28;20502;-76
2022/08/08 12:06:13;;;;;;;2.10;1.20;;;31.90;64.00;;;;;;5059970;28;20456;-75
2022/08/08 12:08:41;;;;;;;1.30;1.20;;;31.80;63.90;;;;;;5060784;28;20498;-76
2022/08/08 12:11:12;;;;;;;2.00;1.07;;;31.80;64.90;;;;;;5059210;28;20463;-75
2022/08/08 12:13:40;;;;;;;1.77;1.20;;;32.10;64.80;;;;;;5060363;28;20790;-77
2022/08/08 12:16:08;;;;;;;1.70;1.07;;;32.30;62.90;;;;;;5060236;28;20510;-77
2022/08/08 12:18:44;;;;;;;1.80;0.90;;;32.30;61.70;;;;;;5060422;28;20558;-76
2022/08/08 12:21:21;;;;;;;2.30;1.20;;;32.20;62.40;;;;;;5059175;28;20495;-78
2022/08/08 12:23:49;;;;;;;6.20;1.10;;;32.20;62.60;;;;;;5060323;28;20522;-76
2022/08/08 12:26:18;;;;;;;2.93;1.60;;;32.20;61.50;;;;;;5058939;28;20503;-75
2022/08/08 12:28:54;;;;;;;1.70;1.00;;;32.10;62.50;;;;;;5057493;28;20554;-76
2022/08/08 12:31:33;;;;;;;4.40;1.10;;;32.30;64.70;;;;;;5058486;28;20555;-76
2022/08/08 12:34:00;;;;;;;1.73;1.00;;;32.60;61.50;;;;;;5058288;28;20475;-76
2022/08/08 12:36:38;;;;;;;1.70;1.00;;;32.50;61.80;;;;;;5058321;28;20451;-77
2022/08/08 12:39:06;;;;;;;3.83;1.03;;;32.80;63.30;;;;;;5058676;28;20484;-76
2022/08/08 12:41:35;;;;;;;1.20;0.90;;;33.00;62.60;;;;;;5058167;28;20547;-76
2022/08/08 12:44:07;;;;;;;1.10;0.97;;;33.10;60.90;;;;;;5058059;28;20464;-76
2022/08/08 12:46:33;;;;;;;2.23;1.13;;;32.90;61.20;;;;;;5056982;28;20459;-76
2022/08/08 12:49:02;;;;;;;2.60;1.10;;;32.70;61.80;;;;;;5058761;28;20506;-77
2022/08/08 12:51:40;;;;;;;2.00;1.10;;;32.80;63.30;;;;;;5058909;28;20472;-76
2022/08/08 12:54:19;;;;;;;1.60;1.13;;;32.70;60.30;;;;;;5058486;28;20444;-76
2022/08/08 12:56:46;;;;;;;2.87;1.00;;;32.20;61.10;;;;;;5057819;28;20512;-76
2022/08/08 12:59:16;;;;;;;2.80;1.13;;;31.80;61.40;;;;;;5057896;28;20896;-75
2022/08/08 13:01:50;;;;;;;2.30;1.20;;;31.60;62.50;;;;;;5058092;28;20488;-75
2022/08/08 13:04:18;;;;;;;6.93;1.20;;;31.70;61.60;;;;;;5058071;28;20514;-75
2022/08/08 13:07:00;;;;;;;3.80;2.30;;;31.90;62.00;;;;;;5057788;28;20513;-74
2022/08/08 13:09:36;;;;;;;3.40;1.40;;;32.00;62.30;;;;;;5057783;28;20530;-75
2022/08/08 13:12:11;;;;;;;2.20;1.20;;;32.20;61.60;;;;;;5057694;28;20552;-75
2022/08/08 13:14:44;;;;;;;1.50;0.90;;;32.40;59.80;;;;;;5057965;28;20488;-76
2022/08/08 13:17:11;;;;;;;1.63;1.00;;;32.20;59.80;;;;;;5058112;28;20467;-76
2022/08/08 13:19:38;;;;;;;2.03;1.00;;;32.20;60.10;;;;;;5058068;28;20475;-76
2022/08/08 13:22:07;;;;;;;2.33;1.23;;;32.00;60.50;;;;;;5057768;28;20537;-76
2022/08/08 13:24:39;;;;;;;2.07;1.00;;;31.60;60.10;;;;;;5057540;28;21004;-75
2022/08/08 13:27:07;;;;;;;1.97;1.00;;;31.50;61.50;;;;;;5057652;28;20543;-75